PDT,Max TemperatureF,Mean TemperatureF,Min TemperatureF,Max Dew PointF,MeanDew PointF,Min DewpointF,Max Humidity, Mean Humidity, Min Humidity, Max Sea Level PressureIn, Mean Sea Level PressureIn, Min Sea Level PressureIn, Max VisibilityMiles, Mean VisibilityMiles, Min VisibilityMiles, Max Wind SpeedMPH, Mean Wind SpeedMPH, Max Gust SpeedMPH,PrecipitationIn, CloudCover, Events, WindDirDegrees
2012-9-1,,,,,,,,,,,,,,,,,,,,,,
2012-9-2,72,61,50,52,52,51,100,93,86,29.96,29.96,29.94,10,2,1,5,3,6,0.00,7,,168
2012-9-3,70,60,49,52,51,48,100,97,93,30.01,29.97,29.95,10,2,0,12,3,14,0.00,8,Fog,220
2012-9-4,67,59,51,54,52,50,100,79,58,30.05,30.01,29.99,10,4,1,10,3,15,0.00,7,,152
2012-9-5,68,60,52,54,52,52,93,78,63,30.01,29.99,29.97,10,7,1,9,3,12,T,6,Thunderstorm,200
2012-9-6,71,62,53,54,53,51,93,73,53,30.03,30.00,29.97,10,9,7,3,4,5,0.00,4,,192
2012-9-7,72,62,51,53,51,48,89,69,49,30.08,30.05,30.02,10,10,10,7,4,8,0.00,0,,166
2012-9-8,73,62,51,53,51,48,96,73,49,30.07,30.02,29.96,10,10,10,10,3,30,0.00,0,,163
2012-9-9,78,64,50,52,50,47,89,61,32,30.01,29.96,29.90,10,10,10,8,3,10,0.00,0,,144
2012-9-10,67,59,50,53,51,46,100,82,63,29.96,29.92,29.88,10,5,0,12,4,14,0.00,6,Fog,170
2012-9-11,67,60,53,53,52,51,93,76,58,29.99,29.94,29.89,10,8,3,12,3,30,0.00,6,,175
2012-9-12,71,62,52,56,54,51,100,80,59,30.10,30.04,30.00,10,6,1,5,3,5,0.00,6,,228
2012-9-13,74,64,54,57,54,53,100,81,61,30.11,30.07,30.05,10,4,0,6,4,8,0.00,7,Fog,178
2012-9-14,70,62,53,56,54,51,93,75,57,30.11,30.08,30.04,10,6,1,10,3,48,0.00,5,,153
2012-9-15,73,62,51,55,52,48,100,77,53,30.11,30.06,30.01,10,6,0,7,3,13,0.00,4,Fog,161
2012-9-16,66,58,49,53,51,48,100,82,63,30.06,30.04,30.01,10,6,0,5,3,6,0.00,4,Fog,204
2012-9-17,64,59,53,52,50,48,93,77,60,30.08,30.05,30.03,10,10,6,12,4,15,0.00,6,,213
2012-9-18,68,60,51,51,50,49,89,74,58,30.12,30.07,30.03,10,10,8,6,3,6,0.00,3,,144
2012-9-19,71,60,48,52,49,46,93,71,49,30.12,30.08,30.04,10,10,9,3,4,5,0.00,1,,255
2012-9-20,72,60,48,51,49,46,93,69,44,30.09,30.04,29.98,10,10,10,9,3,18,0.00,0,,170
2012-9-21,74,61,47,52,49,45,93,69,44,30.01,29.96,29.91,10,10,10,10,3,40,0.00,0,,182
2012-9-22,71,60,49,53,50,47,93,72,51,29.96,29.94,29.92,10,9,6,12,3,17,0.00,2,,186
2012-9-23,71,59,47,54,50,46,100,75,49,30.00,29.97,29.92,10,4,0,13,4,30,0.00,5,Fog,252
2012-9-24,64,58,51,53,51,48,100,84,67,30.00,29.96,29.93,10,9,2,10,4,26,0.00,7,,215
2012-9-25,67,60,52,54,52,51,100,82,63,29.96,29.93,29.89,10,6,1,13,3,20,0.00,6,,179
2012-9-26,64,59,53,52,52,51,93,80,67,29.93,29.91,29.88,10,8,2,12,3,18,0.00,7,,163
2012-9-27,66,59,52,54,52,51,100,82,63,29.95,29.92,29.89,10,6,1,12,2,30,0.00,6,,217
2012-9-28,64,58,52,54,52,51,100,86,72,30.00,29.95,29.92,10,6,1,13,3,17,0.00,7,,220
2012-9-29,69,61,53,55,53,52,100,82,63,30.06,30.03,29.98,10,3,0,12,2,14,0.00,6,Fog,182
2012-9-30,95,72,48,54,51,39,100,57,14,30.06,30.02,29.96,10,5,0,10,3,17,0.00,2,Fog,234